createdAt,value
2019-03-31T00:01:16.578Z,34.93
2019-03-31T00:03:47.050Z,36.07
2019-03-31T00:06:17.308Z,35.73
2019-03-31T00:08:47.640Z,35.90
2019-03-31T00:11:18.042Z,32.80
2019-03-31T00:13:48.301Z,37.47
2019-03-31T00:16:18.636Z,34.00
2019-03-31T00:18:48.904Z,32.87
2019-03-31T00:21:19.241Z,36.10
2019-03-31T00:23:50.101Z,34.63
2019-03-31T00:26:20.346Z,38.63
2019-03-31T00:28:50.636Z,35.60
2019-03-31T00:31:22.773Z,38.87
2019-03-31T00:33:53.257Z,34.67
2019-03-31T00:36:23.549Z,38.57
2019-03-31T00:38:54.297Z,39.73
2019-03-31T00:41:24.541Z,34.60
2019-03-31T00:43:54.786Z,40.53
2019-03-31T00:46:25.201Z,35.43
2019-03-31T00:48:55.462Z,32.63
2019-03-31T00:51:25.794Z,34.97
2019-03-31T00:53:56.159Z,36.03
2019-03-31T00:56:26.418Z,35.77
2019-03-31T00:58:56.751Z,38.90
2019-03-31T01:01:40.176Z,36.17
2019-03-31T01:04:12.220Z,37.97
2019-03-31T01:06:42.656Z,42.50
2019-03-31T01:09:25.391Z,34.80
2019-03-31T01:11:56.149Z,35.13
2019-03-31T01:14:26.584Z,37.67
2019-03-31T01:16:57.306Z,39.10
2019-03-31T01:19:27.611Z,33.67
2019-03-31T01:21:58.056Z,35.33
2019-03-31T01:24:28.418Z,35.33
2019-03-31T01:26:58.764Z,30.77
2019-03-31T01:29:29.056Z,33.83
2019-03-31T01:31:59.310Z,41.70
2019-03-31T01:34:29.704Z,32.93
2019-03-31T01:37:00.158Z,36.90
2019-03-31T01:39:33.114Z,34.93
2019-03-31T01:42:04.211Z,32.63
2019-03-31T01:44:34.618Z,28.50
2019-03-31T01:47:05.312Z,32.00
2019-03-31T01:49:37.218Z,32.40
2019-03-31T01:52:07.573Z,28.40
2019-03-31T01:54:37.984Z,30.57
2019-03-31T01:57:09.954Z,33.90
2019-03-31T01:59:40.243Z,26.87
2019-03-31T02:02:15.026Z,27.33
2019-03-31T02:04:45.403Z,26.40
2019-03-31T02:07:15.796Z,32.83
2019-03-31T02:09:46.064Z,27.83
2019-03-31T02:12:16.309Z,27.77
2019-03-31T02:14:46.598Z,25.20
2019-03-31T02:17:17.897Z,27.17
2019-03-31T02:19:48.162Z,29.57
2019-03-31T02:22:19.603Z,27.87
2019-03-31T02:24:49.920Z,23.47
2019-03-31T02:27:20.266Z,26.40
2019-03-31T02:29:50.550Z,25.03
2019-03-31T02:32:24.229Z,23.43
2019-03-31T02:34:53.006Z,29.47
2019-03-31T02:37:24.434Z,20.73
2019-03-31T02:39:54.716Z,22.47
2019-03-31T02:42:24.964Z,21.80
2019-03-31T02:44:55.341Z,21.77
2019-03-31T02:47:25.591Z,23.70
2019-03-31T02:49:56.968Z,23.60
2019-03-31T02:52:27.323Z,23.80
2019-03-31T02:54:57.738Z,18.37
2019-03-31T02:57:28.575Z,21.77
2019-03-31T02:59:59.800Z,21.33
2019-03-31T03:02:41.333Z,21.63
2019-03-31T03:05:17.430Z,20.20
2019-03-31T03:07:37.287Z,24.03
2019-03-31T03:10:07.752Z,22.27
2019-03-31T03:12:39.839Z,15.75
2019-03-31T03:15:10.282Z,19.07
2019-03-31T03:17:40.616Z,16.93
2019-03-31T03:20:10.855Z,18.00
2019-03-31T03:22:41.181Z,17.33
2019-03-31T03:25:11.518Z,15.07
2019-03-31T03:27:41.764Z,18.77
2019-03-31T03:30:12.111Z,15.63
2019-03-31T03:33:11.045Z,14.33
2019-03-31T03:35:14.403Z,18.70
2019-03-31T03:37:44.654Z,17.07
2019-03-31T03:40:15.012Z,13.90
2019-03-31T03:42:45.263Z,15.63
2019-03-31T03:45:15.537Z,14.13
2019-03-31T03:47:45.834Z,18.77
2019-03-31T03:50:16.055Z,16.97
2019-03-31T03:52:46.315Z,14.30
2019-03-31T03:55:16.631Z,17.23
2019-03-31T03:57:47.073Z,16.17
2019-03-31T04:00:17.403Z,12.00
2019-03-31T04:02:47.679Z,15.77
2019-03-31T04:05:17.962Z,16.53
2019-03-31T04:07:48.224Z,12.90
2019-03-31T04:10:36.522Z,16.20
2019-03-31T04:13:06.737Z,14.00
2019-03-31T04:15:37.038Z,15.97
2019-03-31T04:18:07.351Z,12.80
2019-03-31T04:20:39.473Z,12.50
2019-03-31T04:23:09.809Z,13.47
2019-03-31T04:25:40.191Z,14.57
2019-03-31T04:28:10.550Z,14.83
2019-03-31T04:30:40.801Z,14.87
2019-03-31T04:33:11.053Z,12.07
2019-03-31T04:35:41.281Z,12.40
2019-03-31T04:38:11.526Z,11.57
2019-03-31T04:40:41.843Z,10.13
2019-03-31T04:43:12.120Z,8.33
2019-03-31T04:45:42.352Z,9.90
2019-03-31T04:48:12.620Z,10.37
2019-03-31T04:50:42.865Z,10.77
2019-03-31T04:53:13.092Z,9.90
2019-03-31T04:55:43.446Z,9.37
2019-03-31T04:58:13.726Z,9.03
2019-03-31T05:00:44.030Z,9.97
2019-03-31T05:03:15.536Z,11.83
2019-03-31T05:05:45.887Z,7.83
2019-03-31T05:08:16.301Z,8.17
2019-03-31T05:10:46.642Z,11.60
2019-03-31T05:13:16.955Z,10.57
2019-03-31T05:15:47.208Z,15.40
2019-03-31T05:18:17.548Z,13.07
2019-03-31T05:20:47.966Z,9.90
2019-03-31T05:23:18.330Z,10.83
2019-03-31T05:25:49.785Z,9.70
2019-03-31T05:28:20.060Z,11.93
2019-03-31T05:30:50.448Z,6.43
2019-03-31T05:33:22.094Z,11.43
2019-03-31T05:35:52.399Z,8.13
2019-03-31T05:38:22.697Z,13.03
2019-03-31T05:40:52.999Z,7.00
2019-03-31T05:43:23.322Z,9.63
2019-03-31T05:45:53.577Z,5.23
2019-03-31T05:48:23.829Z,6.37
2019-03-31T05:50:54.156Z,6.60
2019-03-31T05:53:24.475Z,5.80
2019-03-31T05:55:54.728Z,6.73
2019-03-31T05:58:24.942Z,4.57
2019-03-31T06:00:55.203Z,7.43
2019-03-31T06:03:25.453Z,3.73
2019-03-31T06:05:56.760Z,8.37
2019-03-31T06:08:27.040Z,4.77
2019-03-31T06:10:57.353Z,6.33
2019-03-31T06:13:27.609Z,4.47
2019-03-31T06:15:57.848Z,5.53
2019-03-31T06:18:28.131Z,4.33
2019-03-31T06:20:58.407Z,3.77
2019-03-31T06:23:28.673Z,4.50
2019-03-31T06:25:59.062Z,7.93
2019-03-31T06:28:29.376Z,4.17
2019-03-31T06:31:01.110Z,3.33
2019-03-31T06:33:31.436Z,9.67
2019-03-31T06:36:01.710Z,7.23
2019-03-31T06:38:32.026Z,8.10
2019-03-31T06:41:02.414Z,8.93
2019-03-31T06:43:32.798Z,4.60
2019-03-31T06:46:03.104Z,2.70
2019-03-31T06:48:33.354Z,4.60
2019-03-31T06:51:04.530Z,9.70
2019-03-31T06:53:34.822Z,2.97
2019-03-31T06:56:05.165Z,5.97
2019-03-31T06:58:35.462Z,9.37
2019-03-31T07:01:05.738Z,6.47
2019-03-31T07:03:36.031Z,8.57
2019-03-31T07:06:06.389Z,11.30
2019-03-31T07:08:36.942Z,8.73
2019-03-31T07:11:07.175Z,8.00
2019-03-31T07:13:37.482Z,7.73
2019-03-31T07:16:07.817Z,11.37
2019-03-31T07:18:38.163Z,6.87
2019-03-31T07:21:08.468Z,8.23
2019-03-31T07:23:40.317Z,10.03
2019-03-31T07:26:10.532Z,7.63
2019-03-31T07:28:40.816Z,9.97
2019-03-31T07:31:11.105Z,7.53
2019-03-31T07:33:41.475Z,10.23
2019-03-31T07:36:11.700Z,7.77
2019-03-31T07:38:41.976Z,7.70
2019-03-31T07:41:13.356Z,9.83
2019-03-31T07:43:43.959Z,11.53
2019-03-31T07:46:14.268Z,9.03
2019-03-31T07:48:44.489Z,8.73
2019-03-31T07:51:14.741Z,9.03
2019-03-31T07:53:45.116Z,12.67
2019-03-31T07:56:16.213Z,10.07
2019-03-31T07:58:46.690Z,9.17
2019-03-31T08:01:16.911Z,12.23
2019-03-31T08:03:47.153Z,6.27
2019-03-31T08:06:17.400Z,7.57
2019-03-31T08:08:47.698Z,13.37
2019-03-31T08:11:17.904Z,8.10
2019-03-31T08:13:48.170Z,5.67
2019-03-31T08:16:18.435Z,5.93
2019-03-31T08:18:48.739Z,12.13
2019-03-31T08:21:19.119Z,10.70
2019-03-31T08:23:49.378Z,10.30
2019-03-31T08:26:19.632Z,8.90
2019-03-31T08:28:49.845Z,6.80
2019-03-31T08:31:20.101Z,8.20
2019-03-31T08:33:50.347Z,8.03
2019-03-31T08:36:20.693Z,9.20
2019-03-31T08:38:50.947Z,4.60
2019-03-31T08:41:21.282Z,9.07
2019-03-31T08:43:51.556Z,3.83
2019-03-31T08:46:21.914Z,6.93
2019-03-31T08:48:52.194Z,8.03
2019-03-31T08:51:22.490Z,6.90
2019-03-31T08:53:52.754Z,6.80
2019-03-31T08:56:23.147Z,8.77
2019-03-31T08:58:53.492Z,5.27
2019-03-31T09:01:23.755Z,6.27
2019-03-31T09:03:54.004Z,7.37
2019-03-31T09:06:24.373Z,8.63
2019-03-31T09:08:54.603Z,5.43
2019-03-31T09:11:24.881Z,9.27
2019-03-31T09:13:55.129Z,5.57
2019-03-31T09:16:25.512Z,6.63
2019-03-31T09:18:55.814Z,5.50
2019-03-31T09:21:26.148Z,10.43
2019-03-31T09:23:56.609Z,11.67
2019-03-31T09:26:26.908Z,7.27
2019-03-31T09:28:57.194Z,5.60
2019-03-31T09:31:27.464Z,7.70
2019-03-31T09:33:57.689Z,3.93
2019-03-31T09:36:28.037Z,9.03
2019-03-31T09:38:58.255Z,11.43
2019-03-31T09:41:28.548Z,7.13
2019-03-31T09:43:58.744Z,7.90
2019-03-31T09:46:29.065Z,10.73
2019-03-31T09:48:59.327Z,10.73
2019-03-31T09:51:29.625Z,15.83
2019-03-31T09:53:59.894Z,7.47
2019-03-31T09:56:30.194Z,9.50
2019-03-31T09:59:00.438Z,5.13
2019-03-31T10:01:31.855Z,8.97
2019-03-31T10:04:02.255Z,11.47
2019-03-31T10:06:33.142Z,4.60
2019-03-31T10:09:05.650Z,12.83
2019-03-31T10:11:35.920Z,7.80
2019-03-31T10:14:06.260Z,9.33
2019-03-31T10:16:36.527Z,5.07
2019-03-31T10:19:06.832Z,6.33
2019-03-31T10:21:37.084Z,6.43
2019-03-31T10:24:07.486Z,11.47
2019-03-31T10:26:37.891Z,5.90
2019-03-31T10:29:08.115Z,4.27
2019-03-31T10:31:38.385Z,7.37
2019-03-31T10:34:10.116Z,11.47
2019-03-31T10:36:44.737Z,6.37
2019-03-31T10:39:12.487Z,6.70
2019-03-31T10:41:42.878Z,6.07
2019-03-31T10:44:13.254Z,6.83
2019-03-31T10:46:43.491Z,9.17
2019-03-31T10:49:13.827Z,5.20
2019-03-31T10:51:44.169Z,3.87
2019-03-31T10:54:14.532Z,6.93
2019-03-31T10:56:44.764Z,5.20
2019-03-31T10:59:15.036Z,7.60
2019-03-31T11:01:45.474Z,5.40
2019-03-31T11:04:15.723Z,5.63
2019-03-31T11:06:58.281Z,3.30
2019-03-31T11:09:18.262Z,6.83
2019-03-31T11:11:48.600Z,3.40
2019-03-31T11:14:18.904Z,8.10
2019-03-31T11:16:49.246Z,8.17
2019-03-31T11:19:19.522Z,5.27
2019-03-31T11:22:04.236Z,2.90
2019-03-31T11:24:34.488Z,5.07
2019-03-31T11:27:04.851Z,8.50
2019-03-31T11:29:35.197Z,11.37
2019-03-31T11:32:05.575Z,4.80
2019-03-31T11:34:35.842Z,5.97
2019-03-31T11:37:13.387Z,4.53
2019-03-31T11:39:38.206Z,9.47
2019-03-31T11:42:09.499Z,5.10
2019-03-31T11:44:39.866Z,6.43
2019-03-31T11:47:10.142Z,5.73
2019-03-31T11:49:40.512Z,4.57
2019-03-31T11:52:10.853Z,5.13
2019-03-31T11:54:41.207Z,6.73
2019-03-31T11:57:11.709Z,5.00
2019-03-31T11:59:41.949Z,2.30
2019-03-31T12:02:26.468Z,9.53
2019-03-31T12:04:45.075Z,7.80
2019-03-31T12:07:27.220Z,6.17
2019-03-31T12:09:47.260Z,6.30
2019-03-31T12:12:17.650Z,5.70
2019-03-31T12:14:59.849Z,2.47
2019-03-31T12:17:19.892Z,5.03
2019-03-31T12:19:50.131Z,3.90
2019-03-31T12:22:20.361Z,4.50
2019-03-31T12:24:50.690Z,2.40
2019-03-31T12:27:21.022Z,2.23
2019-03-31T12:29:51.249Z,3.63
2019-03-31T12:32:21.502Z,3.87
2019-03-31T12:34:51.827Z,2.00
2019-03-31T12:37:22.142Z,3.43
2019-03-31T12:39:52.403Z,4.97
2019-03-31T12:42:22.662Z,4.23
2019-03-31T12:44:52.914Z,3.67
2019-03-31T12:47:23.322Z,4.70
2019-03-31T12:49:53.746Z,8.93
2019-03-31T12:52:24.084Z,3.00
2019-03-31T12:54:54.339Z,6.73
2019-03-31T12:57:24.568Z,4.07
2019-03-31T12:59:57.150Z,3.70
2019-03-31T13:02:27.462Z,4.77
2019-03-31T13:04:57.800Z,4.90
2019-03-31T13:07:28.035Z,3.73
2019-03-31T13:09:58.291Z,3.23
2019-03-31T13:12:28.531Z,3.10
2019-03-31T13:14:58.783Z,6.33
2019-03-31T13:17:29.191Z,2.73
2019-03-31T13:19:59.462Z,5.00
2019-03-31T13:22:29.732Z,5.20
2019-03-31T13:25:02.274Z,7.47
2019-03-31T13:27:33.913Z,5.93
2019-03-31T13:30:06.087Z,5.57
2019-03-31T13:32:36.348Z,3.83
2019-03-31T13:35:08.462Z,4.47
2019-03-31T13:37:38.697Z,5.43
2019-03-31T13:40:08.999Z,5.57
2019-03-31T13:42:39.213Z,4.40
2019-03-31T13:45:09.604Z,8.37
2019-03-31T13:47:39.907Z,3.20
2019-03-31T13:50:11.337Z,5.80
2019-03-31T13:52:42.590Z,2.70
2019-03-31T13:55:12.915Z,4.23
2019-03-31T13:57:44.298Z,2.77
2019-03-31T14:00:25.048Z,2.40
2019-03-31T14:02:48.723Z,3.50
2019-03-31T14:05:18.981Z,5.63
2019-03-31T14:07:49.310Z,3.97
2019-03-31T14:10:20.010Z,5.53
2019-03-31T14:12:50.348Z,5.87
2019-03-31T14:15:20.662Z,4.57
2019-03-31T14:17:50.922Z,4.43
2019-03-31T14:20:21.203Z,3.20
2019-03-31T14:22:51.468Z,3.97
2019-03-31T14:25:22.633Z,3.27
2019-03-31T14:27:53.939Z,3.03
2019-03-31T14:30:24.224Z,5.20
2019-03-31T14:32:54.509Z,4.33
2019-03-31T14:35:24.830Z,3.57
2019-03-31T14:37:55.142Z,2.23
2019-03-31T14:40:25.476Z,4.47
2019-03-31T14:42:55.997Z,5.73
2019-03-31T14:45:30.273Z,3.77
2019-03-31T14:48:00.955Z,4.20
2019-03-31T14:50:32.859Z,4.83
2019-03-31T14:53:04.827Z,2.20
2019-03-31T14:55:35.310Z,4.70
2019-03-31T14:58:08.050Z,5.90
2019-03-31T15:00:38.042Z,6.47
2019-03-31T15:03:08.351Z,4.57
2019-03-31T15:05:38.703Z,4.87
2019-03-31T15:08:08.949Z,6.93
2019-03-31T15:10:40.216Z,6.17
2019-03-31T15:13:10.586Z,6.27
2019-03-31T15:15:40.972Z,3.13
2019-03-31T15:18:11.257Z,7.40
2019-03-31T15:20:41.568Z,3.90
2019-03-31T15:23:11.939Z,4.80
2019-03-31T15:25:43.337Z,7.30
2019-03-31T15:28:13.673Z,3.07
2019-03-31T15:30:44.045Z,6.37
2019-03-31T15:33:14.384Z,4.13
2019-03-31T15:35:44.584Z,3.93
2019-03-31T15:38:14.875Z,5.87
2019-03-31T15:40:48.373Z,6.33
2019-03-31T15:43:17.124Z,5.10
2019-03-31T15:45:47.462Z,4.17
2019-03-31T15:48:17.742Z,5.93
2019-03-31T15:50:47.979Z,9.10
2019-03-31T15:53:18.342Z,3.97
2019-03-31T15:55:48.588Z,6.47
2019-03-31T15:58:18.890Z,6.73
2019-03-31T16:00:49.133Z,7.17
2019-03-31T16:03:19.392Z,5.70
2019-03-31T16:05:49.757Z,6.23
2019-03-31T16:08:19.840Z,4.20
2019-03-31T16:10:49.883Z,5.33
2019-03-31T16:13:19.880Z,5.77
2019-03-31T16:15:49.856Z,4.93
2019-03-31T16:18:19.852Z,3.43
2019-03-31T16:20:49.979Z,4.57
2019-03-31T16:23:20.065Z,7.00
2019-03-31T16:25:53.821Z,5.13
2019-03-31T16:28:23.794Z,9.30
2019-03-31T16:30:53.899Z,4.83
2019-03-31T16:33:23.896Z,4.63
2019-03-31T16:35:53.955Z,5.53
2019-03-31T16:38:25.831Z,7.90
2019-03-31T16:40:56.156Z,5.20
2019-03-31T16:43:26.255Z,8.13
2019-03-31T16:45:59.476Z,6.77
2019-03-31T16:48:30.740Z,8.23
2019-03-31T16:51:00.776Z,6.20
2019-03-31T16:53:30.797Z,5.03
2019-03-31T16:56:00.811Z,8.67
2019-03-31T16:58:30.846Z,5.83
2019-03-31T17:01:00.871Z,4.10
2019-03-31T17:03:31.005Z,8.50
2019-03-31T17:06:00.994Z,5.00
2019-03-31T17:08:31.103Z,7.10
2019-03-31T17:11:01.040Z,6.30
2019-03-31T17:13:32.159Z,7.97
2019-03-31T17:16:04.052Z,7.20
2019-03-31T17:18:34.102Z,10.40
2019-03-31T17:21:04.352Z,5.83
2019-03-31T17:23:34.301Z,4.77
2019-03-31T17:26:04.373Z,4.90
2019-03-31T17:28:34.404Z,3.67
2019-03-31T17:31:04.638Z,6.12
2019-03-31T17:33:34.586Z,4.33
2019-03-31T17:36:04.610Z,3.90
2019-03-31T17:38:35.804Z,9.40
2019-03-31T17:41:05.924Z,6.60
2019-03-31T17:43:36.010Z,5.33
2019-03-31T17:46:05.990Z,10.70
2019-03-31T17:48:36.059Z,5.13
2019-03-31T17:51:07.210Z,5.40
2019-03-31T17:53:37.238Z,4.63
2019-03-31T17:56:07.218Z,7.23
2019-03-31T17:58:37.361Z,7.37
2019-03-31T18:01:07.432Z,6.20
2019-03-31T18:03:37.478Z,4.90
2019-03-31T18:06:07.495Z,4.83
2019-03-31T18:08:37.464Z,11.20
2019-03-31T18:11:07.488Z,7.37
2019-03-31T18:13:37.543Z,5.43
2019-03-31T18:16:07.493Z,8.20
2019-03-31T18:18:37.460Z,9.03
2019-03-31T18:21:07.488Z,6.00
2019-03-31T18:23:37.514Z,5.33
2019-03-31T18:26:07.562Z,7.30
2019-03-31T18:28:37.540Z,6.27
2019-03-31T18:31:07.494Z,2.77
2019-03-31T18:33:37.626Z,4.83
2019-03-31T18:36:07.717Z,7.47
2019-03-31T18:38:37.884Z,4.90
2019-03-31T18:41:07.938Z,7.40
2019-03-31T18:43:50.709Z,12.63
2019-03-31T18:46:10.001Z,9.03
2019-03-31T18:48:40.069Z,8.40
2019-03-31T18:51:10.138Z,5.77
2019-03-31T18:53:44.876Z,6.37
2019-03-31T18:56:46.485Z,6.43
2019-03-31T18:59:42.724Z,5.50
2019-03-31T19:02:25.098Z,7.17
2019-03-31T19:05:07.501Z,8.90
2019-03-31T19:08:11.988Z,4.43
2019-03-31T19:10:59.935Z,6.30
2019-03-31T19:13:55.685Z,5.67
2019-03-31T19:16:41.996Z,10.60
2019-03-31T19:19:40.144Z,6.13
2019-03-31T19:22:32.054Z,6.83
2019-03-31T19:25:21.241Z,7.90
2019-03-31T19:28:19.390Z,5.93
2019-03-31T19:31:17.387Z,4.77
2019-03-31T19:34:24.992Z,4.77
2019-03-31T19:37:13.167Z,8.77
2019-03-31T19:40:05.503Z,5.37
2019-03-31T19:42:54.781Z,5.77
2019-03-31T19:45:42.512Z,9.30
2019-03-31T19:48:34.548Z,3.17
2019-03-31T19:51:13.088Z,6.67
2019-03-31T19:54:14.533Z,5.67
2019-03-31T19:57:07.647Z,6.07
2019-03-31T19:59:51.357Z,5.83
2019-03-31T20:02:37.869Z,4.70
2019-03-31T20:05:28.247Z,7.53
2019-03-31T20:08:16.386Z,2.33
2019-03-31T20:11:05.558Z,4.83
2019-03-31T20:26:29.086Z,5.33
2019-03-31T20:29:18.202Z,6.20
2019-03-31T20:31:58.535Z,5.15
2019-03-31T20:34:53.537Z,3.03
2019-03-31T20:37:48.795Z,5.73
2019-03-31T20:40:27.853Z,4.87
2019-03-31T20:43:05.336Z,6.93
2019-03-31T20:45:35.385Z,4.27
2019-03-31T20:48:05.917Z,1.87
2019-03-31T20:50:36.499Z,7.67
2019-03-31T20:53:06.493Z,3.70
2019-03-31T20:55:36.462Z,0.90
2019-03-31T20:58:06.547Z,3.90
2019-03-31T21:00:36.579Z,2.63
2019-03-31T21:03:06.533Z,4.47
2019-03-31T21:05:36.532Z,8.80
2019-03-31T21:08:06.486Z,4.13
2019-03-31T21:10:36.524Z,2.43
2019-03-31T21:13:06.591Z,7.67
2019-03-31T21:15:36.541Z,7.03
2019-03-31T21:18:07.497Z,7.10
2019-03-31T21:20:38.497Z,7.43
2019-03-31T21:23:08.533Z,3.60
2019-03-31T21:31:32.104Z,2.47
2019-03-31T21:34:02.408Z,7.47
2019-03-31T21:36:32.401Z,4.43
2019-03-31T21:39:02.404Z,2.13
2019-03-31T21:41:33.955Z,2.57
2019-03-31T21:44:04.664Z,4.23
2019-03-31T21:46:34.757Z,2.47
2019-03-31T21:49:04.829Z,8.07
2019-03-31T21:51:34.800Z,5.23
2019-03-31T21:54:04.783Z,4.03
2019-03-31T21:56:34.754Z,7.20
2019-03-31T21:59:04.800Z,5.10
2019-03-31T22:01:36.502Z,6.63
2019-03-31T22:04:06.460Z,5.97
2019-03-31T22:06:36.486Z,3.73
2019-03-31T22:09:09.678Z,4.10
2019-03-31T22:11:39.800Z,0.93
2019-03-31T22:14:10.652Z,4.47
2019-03-31T22:16:41.486Z,2.77
2019-03-31T22:19:11.545Z,2.00
2019-03-31T22:21:43.595Z,9.17
2019-03-31T22:24:14.741Z,4.10
2019-03-31T22:26:44.760Z,2.53
2019-03-31T22:29:14.735Z,3.40
2019-03-31T22:31:44.754Z,3.30
2019-03-31T22:34:14.732Z,5.10
2019-03-31T22:36:44.699Z,8.47
2019-03-31T22:39:14.781Z,4.73
2019-03-31T22:41:44.889Z,7.60
2019-03-31T22:44:14.874Z,1.47
2019-03-31T22:46:54.103Z,3.33
2019-03-31T22:49:18.402Z,3.27
2019-03-31T22:51:48.418Z,3.03
2019-03-31T22:54:18.380Z,4.00
2019-03-31T22:56:48.317Z,5.70
2019-03-31T22:59:19.388Z,5.50
2019-03-31T23:01:49.681Z,2.40
2019-03-31T23:04:19.721Z,7.80
2019-03-31T23:06:49.790Z,4.50
2019-03-31T23:09:19.720Z,7.40
2019-03-31T23:11:49.771Z,6.67
2019-03-31T23:14:19.719Z,7.53
2019-03-31T23:16:49.805Z,1.00
2019-03-31T23:19:19.766Z,6.90
2019-03-31T23:21:49.701Z,5.93
2019-03-31T23:24:20.597Z,5.70
2019-03-31T23:26:50.673Z,5.37
2019-03-31T23:29:21.469Z,6.40
2019-03-31T23:31:51.529Z,5.83
2019-03-31T23:34:21.484Z,6.50
2019-03-31T23:36:51.539Z,6.77
2019-03-31T23:39:21.537Z,2.93
2019-03-31T23:41:51.474Z,3.40
2019-03-31T23:44:21.538Z,12.90
2019-03-31T23:46:52.958Z,5.63
2019-03-31T23:49:22.966Z,4.40
2019-03-31T23:51:52.940Z,6.73
2019-03-31T23:54:22.998Z,2.83
2019-03-31T23:56:53.072Z,5.13
2019-03-31T23:59:24.216Z,5.10
